14 Şubat 2020, Cuma 12:11:48

Erzincan'da seferlere kar engeli

Erzincan’da olumsuz hava koşulları nedeniyle bazı uçak seferleri karşılıklı olarak iptal edildi.
  • LTCD 140850Z VRB02KT CAVOK M03/M08 Q1030 NOSIG

Erzincan’da olumsuz hava koşulları nedeniyle bazı uçak seferleri karşılıklı olarak iptal edildi.

Erzincan’da önceki günlerde etkili olan yoğun kar yağışı kentte olumsuzlukları beraberinde getirmeye devam ediyor. Olumsuz hava koşulları hava yolu ulaşımında da aksamalara neden oldu. Erzincan - İstanbul uçuşları karşılıklı olarak iptal edildi. 06.15 THY 7225 Erzincan - İstanbul Sabiha Gökçen, 09.00 PC 2521 Erzincan - İstanbul Sabiha Gökçen, 00.35 THY 7224 İstanbul Sabiha Gökçen - Erzincan, 08.30 PC 2520 İstanbul Sabiha Gökçen - Erzincan seferleri karşılıklı olarak iptal edildi.

Erzincan'da seferlere kar engeli

Facebook Yorum

Yorumlar

Cok yerinde bir karar... ~ 9 gün önce
LTCD 140850Z VRB02KT CAVOK M03/M08 Q1030 NOSIG

Yanıtla

Kalan karakter 1000

Yorum Gönder

Kalan karakter 1000